createdAt,value
2019-01-20T00:01:57.445Z,79.80
2019-01-20T00:04:27.821Z,79.90
2019-01-20T00:06:58.166Z,79.80
2019-01-20T00:09:28.618Z,79.80
2019-01-20T00:11:58.976Z,80.00
2019-01-20T00:14:29.950Z,80.00
2019-01-20T00:17:00.803Z,80.00
2019-01-20T00:19:31.194Z,79.90
2019-01-20T00:22:01.533Z,79.90
2019-01-20T00:24:31.930Z,80.20
2019-01-20T00:27:02.291Z,80.40
2019-01-20T00:29:32.666Z,80.90
2019-01-20T00:32:03.038Z,81.80
2019-01-20T00:34:33.408Z,81.50
2019-01-20T00:37:03.770Z,81.60
2019-01-20T00:39:34.179Z,81.00
2019-01-20T00:42:04.675Z,81.20
2019-01-20T00:44:35.063Z,81.30
2019-01-20T00:47:05.629Z,81.70
2019-01-20T00:49:36.002Z,81.10
2019-01-20T00:52:06.418Z,81.90
2019-01-20T00:54:36.798Z,80.80
2019-01-20T00:57:07.144Z,80.50
2019-01-20T00:59:37.520Z,80.50
2019-01-20T01:02:07.857Z,80.50
2019-01-20T01:04:38.238Z,80.70
2019-01-20T01:07:08.591Z,81.50
2019-01-20T01:09:38.953Z,81.20
2019-01-20T01:12:10.964Z,81.00
2019-01-20T01:14:41.432Z,81.30
2019-01-20T01:17:11.760Z,81.40
2019-01-20T01:19:42.172Z,81.30
2019-01-20T01:22:12.590Z,81.50
2019-01-20T01:24:42.957Z,81.20
2019-01-20T01:27:13.368Z,81.40
2019-01-20T01:29:43.730Z,81.30
2019-01-20T01:32:14.091Z,81.30
2019-01-20T01:34:44.471Z,81.50
2019-01-20T01:37:14.837Z,81.40
2019-01-20T01:39:45.223Z,81.50
2019-01-20T01:42:15.587Z,82.00
2019-01-20T01:44:45.936Z,81.60
2019-01-20T01:47:16.290Z,81.40
2019-01-20T01:49:46.713Z,81.70
2019-01-20T01:52:17.067Z,81.90
2019-01-20T01:54:47.438Z,81.80
2019-01-20T01:57:17.825Z,81.70
2019-01-20T01:59:48.170Z,81.70
2019-01-20T02:02:18.582Z,81.60
2019-01-20T02:04:49.268Z,81.70
2019-01-20T02:07:19.688Z,82.50
2019-01-20T02:09:50.164Z,80.90
2019-01-20T02:12:20.648Z,80.90
2019-01-20T02:14:51.215Z,81.20
2019-01-20T02:17:21.686Z,80.30
2019-01-20T02:19:52.251Z,80.40
2019-01-20T02:22:22.668Z,80.40
2019-01-20T02:24:53.192Z,80.60
2019-01-20T02:27:23.670Z,80.30
2019-01-20T02:29:54.311Z,80.20
2019-01-20T02:32:24.772Z,80.60
2019-01-20T02:34:55.184Z,80.90
2019-01-20T02:37:25.594Z,80.40
2019-01-20T02:39:55.993Z,80.20
2019-01-20T02:42:26.487Z,80.30
2019-01-20T02:44:56.905Z,80.20
2019-01-20T02:47:27.379Z,80.40
2019-01-20T02:49:57.805Z,80.60
2019-01-20T02:52:28.272Z,80.60
2019-01-20T02:54:58.635Z,81.10
2019-01-20T02:57:29.009Z,81.20
2019-01-20T02:59:59.354Z,80.80
2019-01-20T03:02:29.784Z,80.90
2019-01-20T03:05:00.214Z,80.70
2019-01-20T03:07:30.497Z,80.70
2019-01-20T03:10:00.978Z,80.90
2019-01-20T03:12:31.359Z,80.70
2019-01-20T03:15:01.725Z,80.40
2019-01-20T03:17:32.270Z,80.40
2019-01-20T03:20:02.654Z,80.20
2019-01-20T03:22:33.056Z,80.40
2019-01-20T03:25:03.457Z,80.50
2019-01-20T03:27:33.835Z,80.20
2019-01-20T03:30:05.172Z,80.30
2019-01-20T03:32:35.530Z,80.80
2019-01-20T03:35:06.821Z,80.60
2019-01-20T03:37:37.181Z,80.10
2019-01-20T03:40:09.787Z,80.20
2019-01-20T03:42:40.390Z,80.20
2019-01-20T03:45:13.555Z,80.50
2019-01-20T03:47:43.925Z,80.20
2019-01-20T03:50:15.369Z,80.20
2019-01-20T03:52:45.735Z,80.00
2019-01-20T03:55:17.931Z,79.80
2019-01-20T03:57:48.269Z,80.10
2019-01-20T04:00:23.396Z,80.10
2019-01-20T04:02:58.331Z,80.00
2019-01-20T04:05:28.742Z,80.00
2019-01-20T04:07:59.181Z,80.00
2019-01-20T04:10:29.578Z,79.90
2019-01-20T04:12:59.918Z,80.00
2019-01-20T04:15:30.269Z,79.70
2019-01-20T04:18:00.642Z,80.50
2019-01-20T04:20:31.094Z,80.50
2019-01-20T04:23:01.448Z,80.50
2019-01-20T04:25:31.792Z,80.40
2019-01-20T04:28:02.150Z,80.60
2019-01-20T04:30:32.519Z,80.80
2019-01-20T04:33:02.910Z,80.10
2019-01-20T04:35:34.148Z,80.50
2019-01-20T04:38:04.836Z,80.70
2019-01-20T04:40:35.185Z,80.50
2019-01-20T04:43:05.650Z,80.40
2019-01-20T04:45:36.013Z,80.10
2019-01-20T04:48:06.516Z,80.40
2019-01-20T04:50:36.852Z,80.40
2019-01-20T04:53:08.556Z,80.10
2019-01-20T04:55:39.099Z,80.40
2019-01-20T04:58:09.966Z,80.30
2019-01-20T05:00:40.331Z,80.90
2019-01-20T05:03:10.914Z,79.90
2019-01-20T05:05:41.343Z,79.80
2019-01-20T05:08:11.906Z,79.90
2019-01-20T05:10:42.260Z,80.10
2019-01-20T05:13:12.841Z,80.10
2019-01-20T05:15:43.178Z,80.10
2019-01-20T05:18:13.735Z,80.70
2019-01-20T05:20:44.043Z,80.10
2019-01-20T05:23:14.783Z,80.00
2019-01-20T05:25:45.137Z,79.90
2019-01-20T05:28:15.658Z,79.90
2019-01-20T05:30:46.127Z,80.00
2019-01-20T05:33:16.645Z,80.30
2019-01-20T05:35:47.051Z,80.30
2019-01-20T05:38:17.350Z,80.00
2019-01-20T05:40:47.731Z,80.30
2019-01-20T05:43:18.146Z,80.30
2019-01-20T05:45:48.641Z,80.30
2019-01-20T05:48:19.045Z,80.70
2019-01-20T05:50:49.662Z,80.70
2019-01-20T05:53:20.124Z,80.90
2019-01-20T05:55:50.925Z,80.90
2019-01-20T05:58:21.307Z,81.30
2019-01-20T06:00:52.585Z,80.90
2019-01-20T06:03:22.951Z,81.00
2019-01-20T06:05:53.288Z,81.60
2019-01-20T06:08:23.662Z,82.20
2019-01-20T06:10:53.998Z,81.50
2019-01-20T06:13:24.397Z,81.80
2019-01-20T06:15:54.746Z,82.10
2019-01-20T06:18:25.090Z,82.00
2019-01-20T06:20:55.530Z,82.10
2019-01-20T06:23:25.874Z,82.40
2019-01-20T06:25:56.236Z,81.90
2019-01-20T06:28:26.553Z,82.20
2019-01-20T06:30:57.020Z,82.10
2019-01-20T06:33:27.368Z,81.90
2019-01-20T06:35:57.735Z,81.30
2019-01-20T06:38:28.087Z,81.60
2019-01-20T06:40:58.465Z,81.20
2019-01-20T06:43:28.793Z,81.30
2019-01-20T06:45:59.165Z,81.40
2019-01-20T06:48:29.526Z,81.30
2019-01-20T06:50:59.879Z,82.10
2019-01-20T06:53:31.225Z,81.60
2019-01-20T06:56:01.561Z,81.20
2019-01-20T06:58:32.014Z,81.30
2019-01-20T07:01:02.370Z,81.40
2019-01-20T07:03:32.774Z,81.60
2019-01-20T07:06:03.134Z,81.40
2019-01-20T07:08:33.513Z,81.30
2019-01-20T07:11:03.911Z,81.10
2019-01-20T07:13:34.274Z,81.00
2019-01-20T07:16:04.743Z,81.00
2019-01-20T07:18:35.151Z,81.00
2019-01-20T07:21:05.533Z,80.70
2019-01-20T07:23:35.905Z,80.80
2019-01-20T07:26:06.294Z,80.70
2019-01-20T07:28:36.715Z,80.60
2019-01-20T07:31:07.046Z,80.70
2019-01-20T07:33:37.399Z,80.70
2019-01-20T07:36:07.760Z,80.10
2019-01-20T07:38:38.186Z,80.30
2019-01-20T07:41:08.523Z,80.20
2019-01-20T07:43:38.884Z,80.20
2019-01-20T07:46:09.238Z,80.30
2019-01-20T07:48:39.642Z,80.20
2019-01-20T07:51:09.980Z,80.10
2019-01-20T07:53:40.449Z,80.10
2019-01-20T07:56:10.788Z,80.70
2019-01-20T07:58:41.147Z,80.70
2019-01-20T08:01:11.493Z,80.40
2019-01-20T08:03:41.909Z,80.10
2019-01-20T08:06:12.258Z,79.70
2019-01-20T08:08:42.739Z,79.50
2019-01-20T08:11:13.391Z,79.40
2019-01-20T08:13:43.791Z,79.00
2019-01-20T08:16:14.459Z,78.80
2019-01-20T08:18:45.052Z,78.60
2019-01-20T08:21:15.529Z,78.50
2019-01-20T08:23:46.011Z,78.50
2019-01-20T08:26:16.388Z,78.60
2019-01-20T08:28:46.905Z,78.20
2019-01-20T08:31:24.841Z,78.10
2019-01-20T08:33:56.206Z,77.70
2019-01-20T08:36:26.611Z,77.60
2019-01-20T08:38:56.991Z,77.50
2019-01-20T08:41:27.391Z,77.50
2019-01-20T08:43:57.850Z,77.40
2019-01-20T08:46:39.245Z,77.00
2019-01-20T08:49:09.748Z,77.00
2019-01-20T08:51:41.790Z,77.20
2019-01-20T08:54:12.227Z,77.10
2019-01-20T08:56:42.540Z,76.40
2019-01-20T08:59:13.346Z,76.20
2019-01-20T09:01:43.766Z,75.90
2019-01-20T09:04:14.130Z,75.80
2019-01-20T09:06:44.552Z,76.10
2019-01-20T09:09:14.968Z,76.00
2019-01-20T09:11:45.398Z,76.00
2019-01-20T09:14:15.742Z,76.00
2019-01-20T09:16:46.149Z,75.40
2019-01-20T09:19:16.548Z,75.70
2019-01-20T09:21:46.991Z,75.80
2019-01-20T09:24:17.353Z,75.70
2019-01-20T09:26:47.776Z,75.70
2019-01-20T09:29:18.254Z,75.40
2019-01-20T09:31:48.677Z,75.30
2019-01-20T09:34:19.107Z,75.40
2019-01-20T09:36:49.507Z,76.00
2019-01-20T09:39:19.918Z,76.10
2019-01-20T09:41:50.305Z,76.00
2019-01-20T09:44:20.672Z,75.60
2019-01-20T09:46:51.098Z,75.40
2019-01-20T09:49:21.497Z,75.70
2019-01-20T09:51:51.920Z,76.10
2019-01-20T09:54:22.335Z,76.10
2019-01-20T09:56:52.743Z,76.20
2019-01-20T09:59:23.149Z,75.80
2019-01-20T10:01:53.616Z,75.70
2019-01-20T10:04:23.969Z,75.30
2019-01-20T10:06:54.378Z,75.10
2019-01-20T10:09:24.743Z,75.00
2019-01-20T10:11:55.163Z,74.60
2019-01-20T10:14:25.517Z,74.90
2019-01-20T10:16:55.939Z,74.90
2019-01-20T10:19:26.320Z,74.90
2019-01-20T10:21:56.742Z,75.00
2019-01-20T10:24:27.101Z,75.20
2019-01-20T10:26:57.529Z,75.00
2019-01-20T10:29:28.007Z,74.70
2019-01-20T10:31:58.410Z,74.80
2019-01-20T10:34:29.075Z,74.40
2019-01-20T10:37:00.414Z,74.40
2019-01-20T10:39:30.786Z,74.20
2019-01-20T10:42:01.251Z,74.30
2019-01-20T10:44:31.598Z,74.30
2019-01-20T10:47:02.015Z,74.50
2019-01-20T10:49:32.380Z,74.70
2019-01-20T10:52:02.987Z,74.70
2019-01-20T10:54:33.552Z,74.70
2019-01-20T10:57:03.982Z,75.00
2019-01-20T10:59:34.360Z,74.80
2019-01-20T11:02:07.042Z,74.60
2019-01-20T11:04:37.657Z,74.50
2019-01-20T11:07:08.083Z,74.60
2019-01-20T11:09:38.455Z,74.30
2019-01-20T11:12:08.928Z,73.70
2019-01-20T11:14:39.264Z,72.90
2019-01-20T11:17:10.019Z,73.00
2019-01-20T11:19:40.350Z,73.20
2019-01-20T11:22:10.762Z,72.70
2019-01-20T11:24:41.298Z,72.80
2019-01-20T11:27:11.725Z,73.80
2019-01-20T11:29:42.161Z,72.80
2019-01-20T11:32:12.912Z,73.70
2019-01-20T11:34:43.521Z,73.80
2019-01-20T11:37:14.262Z,74.10
2019-01-20T11:39:44.664Z,74.00
2019-01-20T11:42:15.281Z,74.00
2019-01-20T11:44:45.647Z,73.40
2019-01-20T11:47:16.062Z,73.20
2019-01-20T11:49:46.522Z,72.50
2019-01-20T11:52:17.108Z,71.50
2019-01-20T11:54:47.993Z,71.60
2019-01-20T11:57:18.517Z,72.10
2019-01-20T11:59:48.902Z,72.20
2019-01-20T12:02:22.570Z,71.90
2019-01-20T12:04:51.500Z,71.80
2019-01-20T12:07:21.954Z,70.70
2019-01-20T12:09:52.371Z,71.30
2019-01-20T12:12:23.082Z,71.50
2019-01-20T12:14:53.600Z,71.50
2019-01-20T12:17:24.627Z,71.50
2019-01-20T12:19:55.018Z,71.50
2019-01-20T12:22:25.454Z,71.20
2019-01-20T12:24:55.838Z,71.30
2019-01-20T12:27:26.252Z,71.20
2019-01-20T12:29:56.640Z,70.90
2019-01-20T12:32:27.136Z,71.00
2019-01-20T12:34:57.494Z,70.70
2019-01-20T12:37:27.984Z,70.50
2019-01-20T12:39:58.356Z,70.40
2019-01-20T12:42:28.779Z,70.40
2019-01-20T12:44:59.154Z,70.10
2019-01-20T12:47:29.640Z,69.80
2019-01-20T12:50:00.033Z,70.10
2019-01-20T12:52:30.490Z,70.10
2019-01-20T12:55:00.871Z,70.30
2019-01-20T12:57:31.333Z,70.30
2019-01-20T13:00:03.249Z,70.10
2019-01-20T13:02:33.682Z,69.50
2019-01-20T13:05:04.478Z,69.70
2019-01-20T13:07:34.901Z,69.70
2019-01-20T13:10:07.468Z,69.40
2019-01-20T13:12:37.974Z,68.80
2019-01-20T13:15:10.598Z,68.40
2019-01-20T13:17:41.001Z,68.40
2019-01-20T13:20:14.413Z,68.60
2019-01-20T13:22:44.845Z,68.40
2019-01-20T13:25:17.721Z,68.60
2019-01-20T13:27:48.154Z,68.40
2019-01-20T13:30:20.358Z,68.90
2019-01-20T13:32:50.778Z,68.40
2019-01-20T13:35:22.150Z,68.50
2019-01-20T13:38:13.393Z,68.80
2019-01-20T13:40:53.236Z,69.50
2019-01-20T13:43:23.662Z,69.60
2019-01-20T13:45:54.027Z,69.90
2019-01-20T13:48:24.483Z,70.30
2019-01-20T13:50:54.950Z,70.20
2019-01-20T13:53:25.552Z,69.90
2019-01-20T13:56:01.155Z,71.00
2019-01-20T13:58:28.176Z,70.30
2019-01-20T14:00:58.573Z,70.40
2019-01-20T14:03:29.434Z,70.10
2019-01-20T14:05:59.839Z,70.40
2019-01-20T14:08:31.299Z,71.00
2019-01-20T14:11:01.926Z,71.90
2019-01-20T14:13:32.381Z,72.00
2019-01-20T14:16:02.937Z,71.80
2019-01-20T14:18:33.403Z,71.90
2019-01-20T14:21:03.873Z,72.00
2019-01-20T14:23:34.352Z,72.10
2019-01-20T14:26:04.803Z,71.80
2019-01-20T14:28:35.191Z,71.20
2019-01-20T14:31:05.539Z,71.40
2019-01-20T14:33:35.999Z,72.20
2019-01-20T14:36:06.623Z,71.90
2019-01-20T14:38:37.109Z,72.90
2019-01-20T14:41:07.595Z,73.30
2019-01-20T14:43:38.052Z,72.70
2019-01-20T14:46:08.506Z,72.70
2019-01-20T14:48:38.919Z,73.10
2019-01-20T14:51:10.887Z,73.40
2019-01-20T14:56:33.526Z,73.70
2019-01-20T14:59:03.995Z,74.50
2019-01-20T15:01:34.428Z,74.60
2019-01-20T15:04:05.166Z,74.50
2019-01-20T15:06:35.530Z,75.00
2019-01-20T15:09:08.506Z,74.70
2019-01-20T15:11:39.163Z,75.50
2019-01-20T15:14:10.277Z,74.90
2019-01-20T15:16:40.662Z,74.60
2019-01-20T15:19:11.080Z,75.00
2019-01-20T15:21:41.581Z,74.90
2019-01-20T15:24:12.046Z,75.30
2019-01-20T15:26:42.445Z,75.40
2019-01-20T15:29:12.878Z,75.30
2019-01-20T15:31:43.346Z,75.20
2019-01-20T15:34:13.914Z,75.10
2019-01-20T15:36:45.010Z,75.20
2019-01-20T15:39:15.542Z,75.10
2019-01-20T15:41:46.087Z,75.50
2019-01-20T15:44:16.627Z,75.90
2019-01-20T15:46:47.116Z,75.60
2019-01-20T15:49:17.490Z,75.40
2019-01-20T15:51:47.910Z,75.60
2019-01-20T15:54:22.053Z,75.50
2019-01-20T15:56:54.048Z,75.60
2019-01-20T15:59:24.511Z,75.50
2019-01-20T16:01:55.005Z,75.40
2019-01-20T16:04:25.563Z,75.60
2019-01-20T16:06:57.667Z,75.80
2019-01-20T16:09:28.162Z,76.00
2019-01-20T16:11:58.644Z,75.90
2019-01-20T16:14:29.170Z,75.70
2019-01-20T16:16:59.630Z,75.70
2019-01-20T16:19:30.021Z,75.50
2019-01-20T16:22:00.496Z,76.30
2019-01-20T16:24:30.840Z,76.30
2019-01-20T16:27:01.276Z,76.20
2019-01-20T16:29:52.721Z,75.90
2019-01-20T16:32:24.742Z,76.50
2019-01-20T16:34:56.192Z,75.70
2019-01-20T16:37:27.240Z,75.40
2019-01-20T16:39:57.713Z,75.30
2019-01-20T16:42:28.092Z,75.20
2019-01-20T16:44:58.630Z,74.80
2019-01-20T16:47:29.779Z,74.80
2019-01-20T16:50:00.219Z,75.20
2019-01-20T16:52:30.570Z,75.10
2019-01-20T16:55:01.014Z,75.20
2019-01-20T16:57:31.397Z,75.30
2019-01-20T17:00:01.837Z,75.30
2019-01-20T17:02:33.732Z,75.10
2019-01-20T17:05:05.168Z,75.40
2019-01-20T17:07:35.572Z,75.20
2019-01-20T17:10:09.630Z,75.00
2019-01-20T17:12:40.096Z,75.00
2019-01-20T17:15:13.311Z,75.00
2019-01-20T17:17:43.686Z,75.00
2019-01-20T17:20:15.851Z,75.00
2019-01-20T17:22:48.132Z,74.90
2019-01-20T17:25:18.973Z,74.80
2019-01-20T17:27:49.666Z,74.70
2019-01-20T17:30:23.310Z,74.90
2019-01-20T17:32:54.908Z,74.90
2019-01-20T17:35:25.371Z,74.70
2019-01-20T17:37:55.827Z,74.60
2019-01-20T17:40:27.295Z,75.00
2019-01-20T17:42:59.162Z,74.80
2019-01-20T17:45:31.961Z,74.70
2019-01-20T17:48:02.408Z,74.60
2019-01-20T17:50:35.385Z,74.50
2019-01-20T17:53:06.960Z,74.60
2019-01-20T17:55:37.491Z,74.60
2019-01-20T17:58:07.917Z,75.00
2019-01-20T18:00:41.968Z,74.60
2019-01-20T18:03:12.362Z,74.70
2019-01-20T18:05:42.929Z,74.60
2019-01-20T18:08:13.321Z,74.70
2019-01-20T18:10:43.754Z,74.70
2019-01-20T18:13:15.846Z,75.00
2019-01-20T18:15:46.307Z,75.00
2019-01-20T18:18:16.709Z,74.90
2019-01-20T18:20:47.155Z,75.00
2019-01-20T18:23:17.539Z,74.60
2019-01-20T18:25:48.301Z,74.50
2019-01-20T18:28:18.690Z,74.60
2019-01-20T18:30:49.195Z,74.30
2019-01-20T18:33:19.590Z,74.30
2019-01-20T18:35:50.013Z,74.40
2019-01-20T18:38:20.420Z,74.30
2019-01-20T18:40:50.845Z,74.50
2019-01-20T18:43:21.233Z,74.80
2019-01-20T18:45:51.684Z,74.60
2019-01-20T18:48:22.122Z,74.30
2019-01-20T18:50:52.631Z,74.50
2019-01-20T18:53:23.025Z,74.90
2019-01-20T18:55:53.464Z,74.40
2019-01-20T18:58:23.849Z,74.90
2019-01-20T19:00:54.450Z,75.10
2019-01-20T19:03:25.800Z,75.00
2019-01-20T19:05:56.247Z,74.30
2019-01-20T19:08:26.650Z,74.30
2019-01-20T19:10:57.102Z,74.00
2019-01-20T19:13:27.486Z,74.20
2019-01-20T19:15:57.905Z,74.10
2019-01-20T19:18:28.286Z,74.20
2019-01-20T19:20:58.809Z,74.20
2019-01-20T19:23:29.273Z,74.20
2019-01-20T19:25:59.652Z,74.40
2019-01-20T19:28:30.143Z,75.10
2019-01-20T19:31:00.680Z,74.60
2019-01-20T19:33:31.159Z,74.60
2019-01-20T19:36:01.592Z,74.60
2019-01-20T19:38:32.086Z,74.60
2019-01-20T19:41:02.598Z,74.60
2019-01-20T19:43:33.070Z,74.60
2019-01-20T19:46:03.449Z,74.60
2019-01-20T19:48:33.842Z,74.30
2019-01-20T19:51:04.211Z,74.40
2019-01-20T19:53:34.635Z,74.40
2019-01-20T19:56:05.419Z,74.30
2019-01-20T19:58:35.851Z,74.10
2019-01-20T20:01:06.239Z,74.10
2019-01-20T20:03:36.672Z,74.00
2019-01-20T20:06:07.063Z,74.20
2019-01-20T20:08:37.552Z,74.20
2019-01-20T20:11:07.942Z,74.10
2019-01-20T20:13:38.543Z,74.10
2019-01-20T20:16:08.937Z,74.00
2019-01-20T20:18:39.454Z,74.40
2019-01-20T20:21:09.985Z,74.10
2019-01-20T20:23:40.471Z,74.00
2019-01-20T20:26:10.965Z,74.10
2019-01-20T20:28:41.521Z,74.30
2019-01-20T20:31:11.922Z,74.30
2019-01-20T20:33:42.432Z,74.50
2019-01-20T20:36:12.880Z,74.40
2019-01-20T20:38:43.516Z,74.40
2019-01-20T20:41:13.882Z,74.20
2019-01-20T20:43:44.342Z,74.50
2019-01-20T20:46:14.784Z,74.50
2019-01-20T20:48:45.233Z,74.20
2019-01-20T20:51:15.691Z,74.20
2019-01-20T20:53:46.206Z,74.20
2019-01-20T20:56:16.580Z,74.00
2019-01-20T20:58:47.112Z,74.10
2019-01-20T21:01:17.515Z,74.10
2019-01-20T21:03:47.961Z,74.00
2019-01-20T21:06:18.334Z,74.00
2019-01-20T21:08:48.806Z,73.70
2019-01-20T21:11:19.169Z,74.00
2019-01-20T21:13:49.630Z,74.20
2019-01-20T21:16:20.125Z,73.90
2019-01-20T21:18:50.734Z,73.90
2019-01-20T21:21:21.127Z,74.00
2019-01-20T21:23:51.567Z,74.10
2019-01-20T21:26:21.943Z,73.90
2019-01-20T21:28:52.373Z,73.90
2019-01-20T21:31:22.738Z,74.20
2019-01-20T21:33:53.489Z,74.20
2019-01-20T21:36:23.871Z,74.00
2019-01-20T21:38:54.290Z,74.50
2019-01-20T21:41:24.790Z,73.90
2019-01-20T21:43:55.231Z,73.90
2019-01-20T21:46:25.621Z,74.00
2019-01-20T21:48:56.050Z,73.80
2019-01-20T21:51:26.416Z,73.70
2019-01-20T21:53:56.871Z,73.90
2019-01-20T21:56:27.256Z,74.00
2019-01-20T21:58:57.685Z,73.80
2019-01-20T22:01:28.127Z,73.90
2019-01-20T22:03:58.623Z,73.70
2019-01-20T22:06:28.998Z,73.90
2019-01-20T22:08:59.413Z,73.70
2019-01-20T22:11:29.749Z,73.70
2019-01-20T22:14:00.229Z,73.60
2019-01-20T22:16:30.635Z,73.80
2019-01-20T22:19:01.057Z,73.90
2019-01-20T22:21:31.410Z,73.90
2019-01-20T22:24:01.814Z,73.80
2019-01-20T22:26:32.197Z,73.50
2019-01-20T22:29:02.578Z,73.40
2019-01-20T22:31:33.030Z,73.50
2019-01-20T22:34:03.436Z,73.30
2019-01-20T22:36:34.582Z,73.60
2019-01-20T22:39:07.650Z,73.40
2019-01-20T22:41:37.986Z,73.30
2019-01-20T22:44:08.449Z,73.30
2019-01-20T22:46:40.013Z,73.30
2019-01-20T22:49:10.391Z,73.60
2019-01-20T22:51:40.738Z,73.50
2019-01-20T22:54:11.114Z,73.40
2019-01-20T22:56:41.446Z,73.40
2019-01-20T22:59:11.828Z,73.30
2019-01-20T23:01:42.194Z,73.10
2019-01-20T23:04:12.627Z,73.10
2019-01-20T23:06:43.033Z,73.10
2019-01-20T23:09:14.698Z,73.20
2019-01-20T23:11:45.009Z,73.40
2019-01-20T23:14:17.624Z,73.70
2019-01-20T23:16:58.252Z,73.60
2019-01-20T23:19:43.509Z,73.60
2019-01-20T23:22:17.630Z,73.40
2019-01-20T23:24:53.116Z,73.60
2019-01-20T23:27:30.205Z,73.90
2019-01-20T23:30:00.828Z,74.00
2019-01-20T23:32:33.072Z,73.90
2019-01-20T23:35:18.782Z,73.80
2019-01-20T23:37:49.446Z,73.60
2019-01-20T23:40:19.912Z,73.50
2019-01-20T23:42:50.625Z,73.70
2019-01-20T23:45:21.214Z,73.60
2019-01-20T23:47:51.789Z,73.50
2019-01-20T23:50:25.507Z,73.30
2019-01-20T23:52:55.984Z,73.60
2019-01-20T23:55:27.581Z,73.40
2019-01-20T23:57:57.937Z,73.60
